sensor_id;sensor_type;location;lat;lon;timestamp;P1;durP1;ratioP1;P2;durP2;ratioP2
10705;SDS011;5404;42.656;23.336;2023-07-08T00:01:41;25.35;;;17.05;;
10705;SDS011;5404;42.656;23.336;2023-07-08T00:04:06;29.13;;;18.65;;
10705;SDS011;5404;42.656;23.336;2023-07-08T00:06:32;25.65;;;17.23;;
10705;SDS011;5404;42.656;23.336;2023-07-08T00:09:00;26.08;;;18.45;;
10705;SDS011;5404;42.656;23.336;2023-07-08T00:11:26;24.80;;;17.48;;
10705;SDS011;5404;42.656;23.336;2023-07-08T00:13:53;26.83;;;17.92;;
10705;SDS011;5404;42.656;23.336;2023-07-08T00:16:19;28.08;;;17.95;;
10705;SDS011;5404;42.656;23.336;2023-07-08T00:18:44;37.67;;;18.42;;
10705;SDS011;5404;42.656;23.336;2023-07-08T00:21:12;27.88;;;18.48;;
10705;SDS011;5404;42.656;23.336;2023-07-08T00:23:49;27.17;;;18.85;;
10705;SDS011;5404;42.656;23.336;2023-07-08T00:26:22;30.67;;;20.08;;
10705;SDS011;5404;42.656;23.336;2023-07-08T00:28:50;31.20;;;18.77;;
10705;SDS011;5404;42.656;23.336;2023-07-08T00:31:16;32.30;;;18.70;;
10705;SDS011;5404;42.656;23.336;2023-07-08T00:33:41;27.45;;;20.50;;
10705;SDS011;5404;42.656;23.336;2023-07-08T00:36:11;34.92;;;17.73;;
10705;SDS011;5404;42.656;23.336;2023-07-08T00:38:37;33.17;;;20.73;;
10705;SDS011;5404;42.656;23.336;2023-07-08T00:44:07;29.48;;;18.10;;
10705;SDS011;5404;42.656;23.336;2023-07-08T00:49:31;30.88;;;19.20;;
10705;SDS011;5404;42.656;23.336;2023-07-08T00:52:17;45.20;;;19.48;;
10705;SDS011;5404;42.656;23.336;2023-07-08T00:54:53;26.17;;;18.35;;
10705;SDS011;5404;42.656;23.336;2023-07-08T00:57:22;27.38;;;19.23;;
10705;SDS011;5404;42.656;23.336;2023-07-08T00:59:58;27.55;;;19.30;;
10705;SDS011;5404;42.656;23.336;2023-07-08T01:02:29;28.17;;;18.52;;
10705;SDS011;5404;42.656;23.336;2023-07-08T01:04:58;26.27;;;18.75;;
10705;SDS011;5404;42.656;23.336;2023-07-08T01:07:37;26.73;;;18.90;;
10705;SDS011;5404;42.656;23.336;2023-07-08T01:10:07;29.23;;;18.25;;
10705;SDS011;5404;42.656;23.336;2023-07-08T01:12:38;28.65;;;18.02;;
10705;SDS011;5404;42.656;23.336;2023-07-08T01:15:10;24.00;;;17.65;;
10705;SDS011;5404;42.656;23.336;2023-07-08T01:17:36;32.80;;;18.23;;
10705;SDS011;5404;42.656;23.336;2023-07-08T01:20:03;19.45;;;14.90;;
10705;SDS011;5404;42.656;23.336;2023-07-08T01:22:38;23.85;;;17.30;;
10705;SDS011;5404;42.656;23.336;2023-07-08T01:25:05;29.90;;;18.52;;
10705;SDS011;5404;42.656;23.336;2023-07-08T01:27:34;24.42;;;17.77;;
10705;SDS011;5404;42.656;23.336;2023-07-08T01:30:03;23.20;;;17.08;;
10705;SDS011;5404;42.656;23.336;2023-07-08T01:32:31;23.65;;;16.00;;
10705;SDS011;5404;42.656;23.336;2023-07-08T01:34:59;30.15;;;18.42;;
10705;SDS011;5404;42.656;23.336;2023-07-08T01:37:31;23.88;;;15.98;;
10705;SDS011;5404;42.656;23.336;2023-07-08T01:42:44;25.77;;;16.05;;
10705;SDS011;5404;42.656;23.336;2023-07-08T01:45:11;25.88;;;17.73;;
10705;SDS011;5404;42.656;23.336;2023-07-08T01:47:41;23.30;;;15.98;;
10705;SDS011;5404;42.656;23.336;2023-07-08T01:50:11;23.70;;;17.63;;
10705;SDS011;5404;42.656;23.336;2023-07-08T01:52:37;24.88;;;16.40;;
10705;SDS011;5404;42.656;23.336;2023-07-08T01:55:03;24.75;;;17.63;;
10705;SDS011;5404;42.656;23.336;2023-07-08T01:57:29;26.77;;;17.05;;
10705;SDS011;5404;42.656;23.336;2023-07-08T01:59:55;25.98;;;16.58;;
10705;SDS011;5404;42.656;23.336;2023-07-08T02:02:20;23.20;;;16.60;;
10705;SDS011;5404;42.656;23.336;2023-07-08T02:04:47;25.85;;;15.68;;
10705;SDS011;5404;42.656;23.336;2023-07-08T02:07:12;24.17;;;16.15;;
10705;SDS011;5404;42.656;23.336;2023-07-08T02:09:38;23.15;;;15.90;;
10705;SDS011;5404;42.656;23.336;2023-07-08T02:12:03;22.55;;;16.20;;
10705;SDS011;5404;42.656;23.336;2023-07-08T02:14:29;20.33;;;13.90;;
10705;SDS011;5404;42.656;23.336;2023-07-08T02:16:54;21.90;;;15.55;;
10705;SDS011;5404;42.656;23.336;2023-07-08T02:19:20;19.33;;;14.48;;
10705;SDS011;5404;42.656;23.336;2023-07-08T02:21:47;21.13;;;15.20;;
10705;SDS011;5404;42.656;23.336;2023-07-08T02:24:12;28.17;;;16.60;;
10705;SDS011;5404;42.656;23.336;2023-07-08T02:26:38;19.08;;;14.88;;
10705;SDS011;5404;42.656;23.336;2023-07-08T02:29:03;24.25;;;15.98;;
10705;SDS011;5404;42.656;23.336;2023-07-08T02:31:29;20.15;;;15.35;;
10705;SDS011;5404;42.656;23.336;2023-07-08T02:33:54;20.13;;;15.60;;
10705;SDS011;5404;42.656;23.336;2023-07-08T02:36:20;23.58;;;14.90;;
10705;SDS011;5404;42.656;23.336;2023-07-08T02:38:46;20.38;;;15.15;;
10705;SDS011;5404;42.656;23.336;2023-07-08T02:41:12;33.25;;;14.88;;
10705;SDS011;5404;42.656;23.336;2023-07-08T02:43:38;21.73;;;16.92;;
10705;SDS011;5404;42.656;23.336;2023-07-08T02:46:03;21.80;;;14.82;;
10705;SDS011;5404;42.656;23.336;2023-07-08T02:48:29;23.55;;;17.52;;
10705;SDS011;5404;42.656;23.336;2023-07-08T02:51:01;24.02;;;17.25;;
10705;SDS011;5404;42.656;23.336;2023-07-08T02:53:28;25.02;;;16.60;;
10705;SDS011;5404;42.656;23.336;2023-07-08T02:55:53;23.33;;;16.77;;
10705;SDS011;5404;42.656;23.336;2023-07-08T02:58:19;26.65;;;16.20;;
10705;SDS011;5404;42.656;23.336;2023-07-08T03:00:44;19.63;;;15.77;;
10705;SDS011;5404;42.656;23.336;2023-07-08T03:03:10;22.50;;;16.60;;
10705;SDS011;5404;42.656;23.336;2023-07-08T03:05:36;20.83;;;15.98;;
10705;SDS011;5404;42.656;23.336;2023-07-08T03:08:01;22.65;;;15.23;;
10705;SDS011;5404;42.656;23.336;2023-07-08T03:10:27;27.88;;;14.93;;
10705;SDS011;5404;42.656;23.336;2023-07-08T03:12:52;23.55;;;14.80;;
10705;SDS011;5404;42.656;23.336;2023-07-08T03:15:18;19.13;;;14.38;;
10705;SDS011;5404;42.656;23.336;2023-07-08T03:17:44;19.77;;;14.23;;
10705;SDS011;5404;42.656;23.336;2023-07-08T03:20:09;25.48;;;13.38;;
10705;SDS011;5404;42.656;23.336;2023-07-08T03:22:36;19.63;;;14.07;;
10705;SDS011;5404;42.656;23.336;2023-07-08T03:25:02;16.48;;;13.13;;
10705;SDS011;5404;42.656;23.336;2023-07-08T03:27:28;23.05;;;12.95;;
10705;SDS011;5404;42.656;23.336;2023-07-08T03:29:53;24.83;;;13.73;;
10705;SDS011;5404;42.656;23.336;2023-07-08T03:32:18;17.25;;;10.90;;
10705;SDS011;5404;42.656;23.336;2023-07-08T03:34:44;17.33;;;11.32;;
10705;SDS011;5404;42.656;23.336;2023-07-08T03:37:09;17.27;;;10.85;;
10705;SDS011;5404;42.656;23.336;2023-07-08T03:39:35;19.65;;;10.50;;
10705;SDS011;5404;42.656;23.336;2023-07-08T03:42:00;15.38;;;11.43;;
10705;SDS011;5404;42.656;23.336;2023-07-08T03:44:26;15.10;;;9.68;;
10705;SDS011;5404;42.656;23.336;2023-07-08T03:46:51;15.63;;;11.07;;
10705;SDS011;5404;42.656;23.336;2023-07-08T03:49:17;17.90;;;11.43;;
10705;SDS011;5404;42.656;23.336;2023-07-08T03:51:47;19.08;;;11.20;;
10705;SDS011;5404;42.656;23.336;2023-07-08T03:54:14;17.23;;;11.73;;
10705;SDS011;5404;42.656;23.336;2023-07-08T03:56:40;17.48;;;11.57;;
10705;SDS011;5404;42.656;23.336;2023-07-08T03:59:06;20.40;;;11.05;;
10705;SDS011;5404;42.656;23.336;2023-07-08T04:01:31;22.52;;;12.00;;
10705;SDS011;5404;42.656;23.336;2023-07-08T04:03:57;25.50;;;11.20;;
10705;SDS011;5404;42.656;23.336;2023-07-08T04:06:23;14.70;;;10.70;;
10705;SDS011;5404;42.656;23.336;2023-07-08T04:08:49;18.58;;;10.85;;
10705;SDS011;5404;42.656;23.336;2023-07-08T04:11:16;14.40;;;9.73;;
10705;SDS011;5404;42.656;23.336;2023-07-08T04:13:44;15.48;;;9.77;;
10705;SDS011;5404;42.656;23.336;2023-07-08T04:16:35;20.13;;;10.60;;
10705;SDS011;5404;42.656;23.336;2023-07-08T04:19:14;15.85;;;10.48;;
10705;SDS011;5404;42.656;23.336;2023-07-08T04:21:41;11.88;;;9.50;;
10705;SDS011;5404;42.656;23.336;2023-07-08T04:24:11;18.45;;;9.73;;
10705;SDS011;5404;42.656;23.336;2023-07-08T04:26:38;14.70;;;10.13;;
10705;SDS011;5404;42.656;23.336;2023-07-08T04:29:14;16.70;;;10.85;;
10705;SDS011;5404;42.656;23.336;2023-07-08T04:31:42;17.48;;;10.35;;
10705;SDS011;5404;42.656;23.336;2023-07-08T04:34:07;14.25;;;10.50;;
10705;SDS011;5404;42.656;23.336;2023-07-08T04:36:34;19.50;;;10.20;;
10705;SDS011;5404;42.656;23.336;2023-07-08T04:39:01;14.60;;;9.68;;
10705;SDS011;5404;42.656;23.336;2023-07-08T04:41:28;14.93;;;9.87;;
10705;SDS011;5404;42.656;23.336;2023-07-08T04:43:53;12.85;;;9.32;;
10705;SDS011;5404;42.656;23.336;2023-07-08T04:46:22;19.00;;;9.50;;
10705;SDS011;5404;42.656;23.336;2023-07-08T04:48:52;15.30;;;9.23;;
10705;SDS011;5404;42.656;23.336;2023-07-08T04:51:18;14.73;;;9.45;;
10705;SDS011;5404;42.656;23.336;2023-07-08T04:53:44;13.02;;;9.75;;
10705;SDS011;5404;42.656;23.336;2023-07-08T04:56:09;11.25;;;9.18;;
10705;SDS011;5404;42.656;23.336;2023-07-08T04:58:35;17.85;;;9.40;;
10705;SDS011;5404;42.656;23.336;2023-07-08T05:01:00;12.65;;;8.98;;
10705;SDS011;5404;42.656;23.336;2023-07-08T05:03:26;18.50;;;9.63;;
10705;SDS011;5404;42.656;23.336;2023-07-08T05:05:51;14.00;;;9.57;;
10705;SDS011;5404;42.656;23.336;2023-07-08T05:08:16;14.80;;;9.13;;
10705;SDS011;5404;42.656;23.336;2023-07-08T05:10:42;15.85;;;8.90;;
10705;SDS011;5404;42.656;23.336;2023-07-08T05:13:07;15.05;;;10.07;;
10705;SDS011;5404;42.656;23.336;2023-07-08T05:15:33;13.88;;;8.95;;
10705;SDS011;5404;42.656;23.336;2023-07-08T05:18:00;16.23;;;9.73;;
10705;SDS011;5404;42.656;23.336;2023-07-08T05:20:26;14.95;;;9.85;;
10705;SDS011;5404;42.656;23.336;2023-07-08T05:22:51;13.02;;;9.20;;
10705;SDS011;5404;42.656;23.336;2023-07-08T05:25:17;14.32;;;9.15;;
10705;SDS011;5404;42.656;23.336;2023-07-08T05:27:44;20.70;;;9.52;;
10705;SDS011;5404;42.656;23.336;2023-07-08T05:30:11;19.02;;;9.55;;
10705;SDS011;5404;42.656;23.336;2023-07-08T05:32:40;15.18;;;8.95;;
10705;SDS011;5404;42.656;23.336;2023-07-08T05:35:05;12.23;;;7.90;;
10705;SDS011;5404;42.656;23.336;2023-07-08T05:37:31;15.30;;;7.78;;
10705;SDS011;5404;42.656;23.336;2023-07-08T05:39:57;12.10;;;8.18;;
10705;SDS011;5404;42.656;23.336;2023-07-08T05:42:25;14.10;;;7.88;;
10705;SDS011;5404;42.656;23.336;2023-07-08T05:44:50;13.10;;;8.88;;
10705;SDS011;5404;42.656;23.336;2023-07-08T05:47:17;16.80;;;8.40;;
10705;SDS011;5404;42.656;23.336;2023-07-08T05:49:42;13.05;;;8.23;;
10705;SDS011;5404;42.656;23.336;2023-07-08T05:52:08;11.55;;;7.85;;
10705;SDS011;5404;42.656;23.336;2023-07-08T05:54:39;19.00;;;8.30;;
10705;SDS011;5404;42.656;23.336;2023-07-08T05:57:06;11.15;;;7.93;;
10705;SDS011;5404;42.656;23.336;2023-07-08T05:59:34;23.92;;;9.25;;
10705;SDS011;5404;42.656;23.336;2023-07-08T06:02:00;12.75;;;8.40;;
10705;SDS011;5404;42.656;23.336;2023-07-08T06:04:26;12.77;;;9.05;;
10705;SDS011;5404;42.656;23.336;2023-07-08T06:06:52;12.60;;;7.68;;
10705;SDS011;5404;42.656;23.336;2023-07-08T06:09:18;15.82;;;8.68;;
10705;SDS011;5404;42.656;23.336;2023-07-08T06:11:44;13.60;;;8.13;;
10705;SDS011;5404;42.656;23.336;2023-07-08T06:14:09;14.43;;;8.43;;
10705;SDS011;5404;42.656;23.336;2023-07-08T06:16:35;15.10;;;8.52;;
10705;SDS011;5404;42.656;23.336;2023-07-08T06:19:01;18.35;;;7.70;;
10705;SDS011;5404;42.656;23.336;2023-07-08T06:21:26;14.02;;;8.50;;
10705;SDS011;5404;42.656;23.336;2023-07-08T06:23:52;12.82;;;8.30;;
10705;SDS011;5404;42.656;23.336;2023-07-08T06:26:17;17.75;;;8.90;;
10705;SDS011;5404;42.656;23.336;2023-07-08T06:28:43;16.70;;;7.65;;
10705;SDS011;5404;42.656;23.336;2023-07-08T06:31:08;13.88;;;8.50;;
10705;SDS011;5404;42.656;23.336;2023-07-08T06:33:34;14.20;;;8.55;;
10705;SDS011;5404;42.656;23.336;2023-07-08T06:36:00;12.85;;;9.10;;
10705;SDS011;5404;42.656;23.336;2023-07-08T06:38:25;12.85;;;8.48;;
10705;SDS011;5404;42.656;23.336;2023-07-08T06:40:51;14.10;;;9.10;;
10705;SDS011;5404;42.656;23.336;2023-07-08T06:43:16;15.88;;;8.98;;
10705;SDS011;5404;42.656;23.336;2023-07-08T06:45:42;14.30;;;7.90;;
10705;SDS011;5404;42.656;23.336;2023-07-08T06:48:08;12.32;;;7.45;;
10705;SDS011;5404;42.656;23.336;2023-07-08T06:50:34;15.18;;;7.95;;
10705;SDS011;5404;42.656;23.336;2023-07-08T06:53:00;15.45;;;8.10;;
10705;SDS011;5404;42.656;23.336;2023-07-08T06:55:25;11.43;;;7.85;;
10705;SDS011;5404;42.656;23.336;2023-07-08T06:57:51;12.60;;;7.28;;
10705;SDS011;5404;42.656;23.336;2023-07-08T07:00:17;10.85;;;6.88;;
10705;SDS011;5404;42.656;23.336;2023-07-08T07:02:42;16.48;;;8.02;;
10705;SDS011;5404;42.656;23.336;2023-07-08T07:05:08;11.52;;;7.35;;
10705;SDS011;5404;42.656;23.336;2023-07-08T07:07:34;12.18;;;7.22;;
10705;SDS011;5404;42.656;23.336;2023-07-08T07:09:59;10.02;;;6.55;;
10705;SDS011;5404;42.656;23.336;2023-07-08T07:12:25;10.18;;;6.88;;
10705;SDS011;5404;42.656;23.336;2023-07-08T07:14:52;17.30;;;7.07;;
10705;SDS011;5404;42.656;23.336;2023-07-08T07:17:22;9.80;;;6.60;;
10705;SDS011;5404;42.656;23.336;2023-07-08T07:19:48;10.95;;;7.00;;
10705;SDS011;5404;42.656;23.336;2023-07-08T07:22:14;11.70;;;7.03;;
10705;SDS011;5404;42.656;23.336;2023-07-08T07:24:40;13.05;;;7.63;;
10705;SDS011;5404;42.656;23.336;2023-07-08T07:27:05;12.40;;;7.57;;
10705;SDS011;5404;42.656;23.336;2023-07-08T07:29:41;15.50;;;8.27;;
10705;SDS011;5404;42.656;23.336;2023-07-08T07:32:09;13.27;;;7.75;;
10705;SDS011;5404;42.656;23.336;2023-07-08T07:34:35;13.02;;;7.13;;
10705;SDS011;5404;42.656;23.336;2023-07-08T07:37:01;26.08;;;9.60;;
10705;SDS011;5404;42.656;23.336;2023-07-08T07:39:27;30.00;;;8.70;;
10705;SDS011;5404;42.656;23.336;2023-07-08T07:41:53;20.08;;;8.60;;
10705;SDS011;5404;42.656;23.336;2023-07-08T07:44:19;11.27;;;6.90;;
10705;SDS011;5404;42.656;23.336;2023-07-08T07:46:44;11.57;;;8.00;;
10705;SDS011;5404;42.656;23.336;2023-07-08T07:49:11;11.82;;;7.93;;
10705;SDS011;5404;42.656;23.336;2023-07-08T07:51:36;14.18;;;7.38;;
10705;SDS011;5404;42.656;23.336;2023-07-08T07:54:02;13.20;;;6.90;;
10705;SDS011;5404;42.656;23.336;2023-07-08T07:56:27;13.25;;;7.13;;
10705;SDS011;5404;42.656;23.336;2023-07-08T07:58:53;12.23;;;6.78;;
10705;SDS011;5404;42.656;23.336;2023-07-08T08:01:18;9.65;;;6.50;;
10705;SDS011;5404;42.656;23.336;2023-07-08T08:03:44;13.25;;;7.10;;
10705;SDS011;5404;42.656;23.336;2023-07-08T08:06:10;12.93;;;7.03;;
10705;SDS011;5404;42.656;23.336;2023-07-08T08:08:36;12.35;;;7.03;;
10705;SDS011;5404;42.656;23.336;2023-07-08T08:11:01;10.73;;;7.43;;
10705;SDS011;5404;42.656;23.336;2023-07-08T08:13:26;9.68;;;6.43;;
10705;SDS011;5404;42.656;23.336;2023-07-08T08:15:55;12.60;;;6.43;;
10705;SDS011;5404;42.656;23.336;2023-07-08T08:18:22;10.63;;;6.57;;
10705;SDS011;5404;42.656;23.336;2023-07-08T08:20:49;15.30;;;7.10;;
10705;SDS011;5404;42.656;23.336;2023-07-08T08:23:15;13.20;;;7.60;;
10705;SDS011;5404;42.656;23.336;2023-07-08T08:25:41;10.52;;;7.28;;
10705;SDS011;5404;42.656;23.336;2023-07-08T08:28:06;9.88;;;7.15;;
10705;SDS011;5404;42.656;23.336;2023-07-08T08:30:32;15.90;;;7.25;;
10705;SDS011;5404;42.656;23.336;2023-07-08T08:32:57;10.13;;;7.53;;
10705;SDS011;5404;42.656;23.336;2023-07-08T08:35:23;12.15;;;6.90;;
10705;SDS011;5404;42.656;23.336;2023-07-08T08:37:48;22.60;;;8.13;;
10705;SDS011;5404;42.656;23.336;2023-07-08T08:40:17;45.50;;;10.65;;
10705;SDS011;5404;42.656;23.336;2023-07-08T08:42:50;22.65;;;6.55;;
10705;SDS011;5404;42.656;23.336;2023-07-08T08:45:19;8.57;;;6.00;;
10705;SDS011;5404;42.656;23.336;2023-07-08T08:47:50;12.47;;;6.83;;
10705;SDS011;5404;42.656;23.336;2023-07-08T08:50:28;14.73;;;7.28;;
10705;SDS011;5404;42.656;23.336;2023-07-08T08:53:09;10.98;;;6.93;;
10705;SDS011;5404;42.656;23.336;2023-07-08T08:55:37;7.88;;;6.30;;
10705;SDS011;5404;42.656;23.336;2023-07-08T09:00:53;10.43;;;7.10;;
10705;SDS011;5404;42.656;23.336;2023-07-08T09:03:47;15.75;;;7.35;;
10705;SDS011;5404;42.656;23.336;2023-07-08T09:06:18;10.63;;;6.95;;
10705;SDS011;5404;42.656;23.336;2023-07-08T09:08:46;11.98;;;7.22;;
10705;SDS011;5404;42.656;23.336;2023-07-08T09:13:42;8.18;;;6.35;;
10705;SDS011;5404;42.656;23.336;2023-07-08T09:16:15;11.93;;;6.53;;
10705;SDS011;5404;42.656;23.336;2023-07-08T09:24:08;12.57;;;6.72;;
10705;SDS011;5404;42.656;23.336;2023-07-08T09:26:41;16.20;;;6.03;;
10705;SDS011;5404;42.656;23.336;2023-07-08T09:29:09;8.60;;;6.38;;
10705;SDS011;5404;42.656;23.336;2023-07-08T09:31:36;7.68;;;6.07;;
10705;SDS011;5404;42.656;23.336;2023-07-08T09:34:08;10.10;;;5.78;;
10705;SDS011;5404;42.656;23.336;2023-07-08T09:36:42;10.27;;;6.18;;
10705;SDS011;5404;42.656;23.336;2023-07-08T09:39:12;9.93;;;6.32;;
10705;SDS011;5404;42.656;23.336;2023-07-08T09:41:39;7.18;;;5.55;;
10705;SDS011;5404;42.656;23.336;2023-07-08T09:44:06;11.50;;;5.93;;
10705;SDS011;5404;42.656;23.336;2023-07-08T09:46:40;8.30;;;5.88;;
10705;SDS011;5404;42.656;23.336;2023-07-08T09:49:15;7.82;;;5.68;;
10705;SDS011;5404;42.656;23.336;2023-07-08T09:51:43;9.35;;;6.20;;
10705;SDS011;5404;42.656;23.336;2023-07-08T09:54:09;11.55;;;6.55;;
10705;SDS011;5404;42.656;23.336;2023-07-08T09:56:35;16.67;;;6.15;;
10705;SDS011;5404;42.656;23.336;2023-07-08T09:59:08;7.05;;;5.30;;
10705;SDS011;5404;42.656;23.336;2023-07-08T10:01:37;9.05;;;5.32;;
10705;SDS011;5404;42.656;23.336;2023-07-08T10:04:04;13.63;;;5.55;;
10705;SDS011;5404;42.656;23.336;2023-07-08T10:06:32;12.52;;;5.55;;
10705;SDS011;5404;42.656;23.336;2023-07-08T10:09:02;6.30;;;4.88;;
10705;SDS011;5404;42.656;23.336;2023-07-08T10:11:31;6.40;;;5.22;;
10705;SDS011;5404;42.656;23.336;2023-07-08T10:14:22;7.65;;;4.90;;
10705;SDS011;5404;42.656;23.336;2023-07-08T10:16:51;12.50;;;5.13;;
10705;SDS011;5404;42.656;23.336;2023-07-08T10:19:18;6.63;;;4.93;;
10705;SDS011;5404;42.656;23.336;2023-07-08T10:27:13;6.72;;;5.00;;
10705;SDS011;5404;42.656;23.336;2023-07-08T10:29:58;4.95;;;4.43;;
10705;SDS011;5404;42.656;23.336;2023-07-08T11:06:17;6.28;;;4.35;;
10705;SDS011;5404;42.656;23.336;2023-07-08T11:08:53;8.88;;;4.60;;
10705;SDS011;5404;42.656;23.336;2023-07-08T11:11:29;7.28;;;5.50;;
10705;SDS011;5404;42.656;23.336;2023-07-08T11:16:45;8.18;;;4.93;;
10705;SDS011;5404;42.656;23.336;2023-07-08T11:21:51;5.85;;;4.90;;
10705;SDS011;5404;42.656;23.336;2023-07-08T11:27:27;6.03;;;4.80;;
10705;SDS011;5404;42.656;23.336;2023-07-08T11:32:43;8.90;;;5.20;;
10705;SDS011;5404;42.656;23.336;2023-07-08T11:35:15;5.82;;;4.20;;
10705;SDS011;5404;42.656;23.336;2023-07-08T11:37:45;6.18;;;4.95;;
10705;SDS011;5404;42.656;23.336;2023-07-08T11:40:21;10.32;;;4.75;;
10705;SDS011;5404;42.656;23.336;2023-07-08T11:42:51;7.40;;;5.22;;
10705;SDS011;5404;42.656;23.336;2023-07-08T11:45:26;9.55;;;4.95;;
10705;SDS011;5404;42.656;23.336;2023-07-08T11:48:03;7.55;;;4.32;;
10705;SDS011;5404;42.656;23.336;2023-07-08T11:50:42;8.55;;;4.95;;
10705;SDS011;5404;42.656;23.336;2023-07-08T11:53:12;9.30;;;4.68;;
10705;SDS011;5404;42.656;23.336;2023-07-08T11:55:59;6.72;;;4.85;;
10705;SDS011;5404;42.656;23.336;2023-07-08T11:58:49;5.72;;;4.25;;
10705;SDS011;5404;42.656;23.336;2023-07-08T12:01:30;7.38;;;4.80;;
10705;SDS011;5404;42.656;23.336;2023-07-08T12:07:20;9.85;;;4.97;;
10705;SDS011;5404;42.656;23.336;2023-07-08T12:09:59;11.52;;;4.93;;
10705;SDS011;5404;42.656;23.336;2023-07-08T12:12:34;16.40;;;5.20;;
10705;SDS011;5404;42.656;23.336;2023-07-08T12:15:09;6.90;;;4.28;;
10705;SDS011;5404;42.656;23.336;2023-07-08T12:17:38;8.57;;;4.25;;
10705;SDS011;5404;42.656;23.336;2023-07-08T12:20:06;6.88;;;4.68;;
10705;SDS011;5404;42.656;23.336;2023-07-08T12:22:41;6.47;;;4.40;;
10705;SDS011;5404;42.656;23.336;2023-07-08T12:25:13;12.77;;;3.80;;
10705;SDS011;5404;42.656;23.336;2023-07-08T12:27:46;5.95;;;4.45;;
10705;SDS011;5404;42.656;23.336;2023-07-08T12:30:11;7.72;;;4.93;;
10705;SDS011;5404;42.656;23.336;2023-07-08T12:32:39;8.02;;;4.82;;
10705;SDS011;5404;42.656;23.336;2023-07-08T12:35:10;6.32;;;4.70;;
10705;SDS011;5404;42.656;23.336;2023-07-08T12:37:45;10.02;;;7.03;;
10705;SDS011;5404;42.656;23.336;2023-07-08T12:40:11;7.95;;;4.72;;
10705;SDS011;5404;42.656;23.336;2023-07-08T12:42:37;5.50;;;3.80;;
10705;SDS011;5404;42.656;23.336;2023-07-08T12:45:04;6.82;;;4.20;;
10705;SDS011;5404;42.656;23.336;2023-07-08T12:47:38;8.80;;;5.00;;
10705;SDS011;5404;42.656;23.336;2023-07-08T12:50:04;5.70;;;4.45;;
10705;SDS011;5404;42.656;23.336;2023-07-08T12:52:30;4.97;;;3.63;;
10705;SDS011;5404;42.656;23.336;2023-07-08T12:54:55;6.85;;;4.00;;
10705;SDS011;5404;42.656;23.336;2023-07-08T12:57:21;18.10;;;11.70;;
10705;SDS011;5404;42.656;23.336;2023-07-08T12:59:48;8.45;;;5.68;;
10705;SDS011;5404;42.656;23.336;2023-07-08T13:02:17;8.55;;;4.72;;
10705;SDS011;5404;42.656;23.336;2023-07-08T13:04:45;8.48;;;4.50;;
10705;SDS011;5404;42.656;23.336;2023-07-08T13:07:20;8.35;;;5.70;;
10705;SDS011;5404;42.656;23.336;2023-07-08T13:09:54;8.20;;;4.93;;
10705;SDS011;5404;42.656;23.336;2023-07-08T13:12:20;7.32;;;4.85;;
10705;SDS011;5404;42.656;23.336;2023-07-08T13:17:14;9.93;;;4.35;;
10705;SDS011;5404;42.656;23.336;2023-07-08T13:19:41;6.82;;;4.10;;
10705;SDS011;5404;42.656;23.336;2023-07-08T13:22:16;19.17;;;8.18;;
10705;SDS011;5404;42.656;23.336;2023-07-08T13:24:45;19.35;;;10.95;;
10705;SDS011;5404;42.656;23.336;2023-07-08T13:27:18;40.20;;;23.63;;
10705;SDS011;5404;42.656;23.336;2023-07-08T13:29:47;9.85;;;6.03;;
10705;SDS011;5404;42.656;23.336;2023-07-08T13:32:12;9.90;;;4.75;;
10705;SDS011;5404;42.656;23.336;2023-07-08T13:34:40;5.20;;;3.13;;
10705;SDS011;5404;42.656;23.336;2023-07-08T13:37:09;10.85;;;8.07;;
10705;SDS011;5404;42.656;23.336;2023-07-08T13:39:38;12.27;;;5.22;;
10705;SDS011;5404;42.656;23.336;2023-07-08T13:42:08;10.75;;;6.75;;
10705;SDS011;5404;42.656;23.336;2023-07-08T13:44:34;6.93;;;3.85;;
10705;SDS011;5404;42.656;23.336;2023-07-08T13:47:17;11.60;;;5.63;;
10705;SDS011;5404;42.656;23.336;2023-07-08T13:49:52;8.23;;;4.00;;
10705;SDS011;5404;42.656;23.336;2023-07-08T13:52:26;6.38;;;3.83;;
10705;SDS011;5404;42.656;23.336;2023-07-08T13:54:54;5.90;;;3.47;;
10705;SDS011;5404;42.656;23.336;2023-07-08T13:57:27;5.47;;;3.30;;
10705;SDS011;5404;42.656;23.336;2023-07-08T13:59:58;7.28;;;3.92;;
10705;SDS011;5404;42.656;23.336;2023-07-08T14:02:25;7.45;;;3.83;;
10705;SDS011;5404;42.656;23.336;2023-07-08T14:04:54;5.43;;;3.75;;
10705;SDS011;5404;42.656;23.336;2023-07-08T14:07:29;12.75;;;3.67;;
10705;SDS011;5404;42.656;23.336;2023-07-08T14:09:56;5.97;;;3.63;;
10705;SDS011;5404;42.656;23.336;2023-07-08T14:12:22;9.50;;;3.58;;
10705;SDS011;5404;42.656;23.336;2023-07-08T14:14:48;5.40;;;3.55;;
10705;SDS011;5404;42.656;23.336;2023-07-08T14:17:15;5.40;;;3.22;;
10705;SDS011;5404;42.656;23.336;2023-07-08T14:19:46;7.28;;;4.10;;
10705;SDS011;5404;42.656;23.336;2023-07-08T14:24:38;5.47;;;4.03;;
10705;SDS011;5404;42.656;23.336;2023-07-08T14:27:04;8.73;;;3.60;;
10705;SDS011;5404;42.656;23.336;2023-07-08T14:29:30;6.63;;;3.72;;
10705;SDS011;5404;42.656;23.336;2023-07-08T14:31:56;7.70;;;3.67;;
10705;SDS011;5404;42.656;23.336;2023-07-08T14:34:26;5.32;;;3.30;;
10705;SDS011;5404;42.656;23.336;2023-07-08T14:36:52;11.02;;;3.85;;
10705;SDS011;5404;42.656;23.336;2023-07-08T14:39:19;8.50;;;3.65;;
10705;SDS011;5404;42.656;23.336;2023-07-08T14:41:45;5.20;;;3.33;;
10705;SDS011;5404;42.656;23.336;2023-07-08T14:44:20;11.75;;;3.70;;
10705;SDS011;5404;42.656;23.336;2023-07-08T14:46:48;5.75;;;3.40;;
10705;SDS011;5404;42.656;23.336;2023-07-08T14:49:16;8.88;;;4.13;;
10705;SDS011;5404;42.656;23.336;2023-07-08T14:51:46;5.55;;;3.47;;
10705;SDS011;5404;42.656;23.336;2023-07-08T14:54:12;9.20;;;4.03;;
10705;SDS011;5404;42.656;23.336;2023-07-08T14:56:38;12.48;;;4.03;;
10705;SDS011;5404;42.656;23.336;2023-07-08T14:59:05;5.57;;;3.30;;
10705;SDS011;5404;42.656;23.336;2023-07-08T15:01:32;4.78;;;3.40;;
10705;SDS011;5404;42.656;23.336;2023-07-08T15:03:58;8.80;;;3.67;;
10705;SDS011;5404;42.656;23.336;2023-07-08T15:06:24;7.40;;;4.45;;
10705;SDS011;5404;42.656;23.336;2023-07-08T15:08:52;6.13;;;3.58;;
10705;SDS011;5404;42.656;23.336;2023-07-08T15:11:18;9.80;;;3.40;;
10705;SDS011;5404;42.656;23.336;2023-07-08T15:13:45;7.47;;;3.10;;
10705;SDS011;5404;42.656;23.336;2023-07-08T15:16:17;6.10;;;3.85;;
10705;SDS011;5404;42.656;23.336;2023-07-08T15:18:44;8.90;;;3.38;;
10705;SDS011;5404;42.656;23.336;2023-07-08T15:21:10;6.22;;;3.63;;
10705;SDS011;5404;42.656;23.336;2023-07-08T15:23:38;6.88;;;3.45;;
10705;SDS011;5404;42.656;23.336;2023-07-08T15:26:04;6.85;;;3.63;;
10705;SDS011;5404;42.656;23.336;2023-07-08T15:28:40;5.63;;;3.58;;
10705;SDS011;5404;42.656;23.336;2023-07-08T15:31:12;6.40;;;4.55;;
10705;SDS011;5404;42.656;23.336;2023-07-08T15:33:39;11.07;;;3.75;;
10705;SDS011;5404;42.656;23.336;2023-07-08T15:36:06;10.32;;;3.95;;
10705;SDS011;5404;42.656;23.336;2023-07-08T15:38:33;6.72;;;3.90;;
10705;SDS011;5404;42.656;23.336;2023-07-08T15:40:59;6.65;;;4.20;;
10705;SDS011;5404;42.656;23.336;2023-07-08T15:43:25;12.68;;;3.97;;
10705;SDS011;5404;42.656;23.336;2023-07-08T15:45:51;9.93;;;4.20;;
10705;SDS011;5404;42.656;23.336;2023-07-08T15:48:17;6.50;;;3.95;;
10705;SDS011;5404;42.656;23.336;2023-07-08T15:50:43;9.00;;;4.72;;
10705;SDS011;5404;42.656;23.336;2023-07-08T15:53:09;12.65;;;4.63;;
10705;SDS011;5404;42.656;23.336;2023-07-08T15:55:36;11.68;;;4.65;;
10705;SDS011;5404;42.656;23.336;2023-07-08T16:00:48;8.50;;;4.00;;
10705;SDS011;5404;42.656;23.336;2023-07-08T16:03:19;9.57;;;4.40;;